Impacts METAR Board
IDs:

KPHX - Phoenix/Sky Harbor, AZ, US

Updated at: 2300 UTC 19 Jul 2018
Potential Impact None Slight Moderate High
Time 19/11Z 19/12Z 19/13Z 19/14Z 19/15Z 19/16Z 19/17Z 19/18Z 19/19Z 19/20Z 19/21Z 19/22Z 19/23Z
Temp88 88 87 89 89 91 93 98 98 100 102 104 105
Dewpt70 69 69 68 68 68 69 69 68 68 67 66 65
Altim29.90 29.91 29.93 29.94 29.96 29.96 29.96 29.95 29.93 29.90 29.86 29.82 29.79
VIS10 10 10 10 10 10 10 10 10 10 10 10 10
CIG-- -- 200 -- -- -- -- -- -- -- -- -- --
CoverFEWSCTBKNSCTFEWFEWSCTFEWFEWFEWFEWSCTSCT
FltCatVFRVFRVFRVFRVFRVFRVFRVFRVFRVFRVFRVFRVFR
WX--------------------------
WDir260270280280280280240290280290270240300
WSpd11 12 11 10 10 11 8 12 9 7 10 7 9
WGst-- -- -- -- -- -- -- 16 -- -- 17 16 14
Raw hourly METARs
KPHX 191051Z 26011KT 10SM FEW250 31/21 A2990 RMK AO2 SLP103 T03110211
KPHX 191151Z 27012KT 10SM SCT140 31/21 A2991 RMK AO2 SLP106 T03110206 10350 20311 53003
KPHX 191251Z 28011KT 10SM SCT140 BKN200 31/21 A2993 RMK AO2 SLP112 T03060206
KPHX 191351Z 28010KT 10SM FEW140 SCT250 32/20 A2994 RMK AO2 SLP118 T03170200
KPHX 191451Z 28010KT 10SM FEW140 FEW250 32/20 A2996 RMK AO2 SLP123 T03170200 51016
KPHX 191551Z 28011KT 10SM FEW140 FEW250 33/20 A2996 RMK AO2 SLP125 T03280200
KPHX 191651Z 24008KT 10SM SCT160 SCT250 34/21 A2996 RMK AO2 SLP123 T03390206
KPHX 191751Z 29012G16KT 220V310 10SM FEW060 FEW160 37/21 A2995 RMK AO2 SLP119 T03670206 10367 20306 58003
KPHX 191851Z 28009KT 10SM FEW065 FEW160 37/20 A2993 RMK AO2 SLP112 T03670200
KPHX 191951Z 29007KT 10SM FEW070 FEW160 38/20 A2990 RMK AO2 SLP101 CB DSNT N AND NE T03780200
KPHX 192051Z 27010G17KT 10SM FEW070 FEW250 39/19 A2986 RMK AO2 SLP089 CB DSNT N AND NE T03890194 58029
KPHX 192151Z 24007G16KT 210V280 10SM FEW070 FEW230 SCT290 40/19 A2982 RMK AO2 SLP076 CB DSNT N-E AND SE T04000189
KPHX 192251Z 30009G14KT 10SM FEW070 FEW230 SCT290 41/18 A2979 RMK AO2 SLP064 CB DSNT N-E AND SE T04060183



Page loaded:  23:13 UTC  |   04:13 PM Pacific  |   05:13 PM Mountain  |   06:13 PM Central  |   07:13 PM Eastern

 

ADVISORIES

FORECASTS

FORECASTS

OBSERVATIONS

USER TOOLS

ABOUT US